createdAt,value
2023-01-25T00:02:09.937Z,25.13
2023-01-25T00:04:40.078Z,28.23
2023-01-25T00:07:08.541Z,25.13
2023-01-25T00:09:37.119Z,26.30
2023-01-25T00:12:06.103Z,27.43
2023-01-25T00:14:34.566Z,25.17
2023-01-25T00:17:03.382Z,26.87
2023-01-25T00:19:32.091Z,28.60
2023-01-25T00:22:02.100Z,27.50
2023-01-25T00:24:30.722Z,27.57
2023-01-25T00:27:00.028Z,26.83
2023-01-25T00:29:33.796Z,26.03
2023-01-25T00:32:29.711Z,25.93
2023-01-25T00:34:58.555Z,26.40
2023-01-25T00:37:32.220Z,25.47
2023-01-25T00:40:00.736Z,25.10
2023-01-25T00:42:29.198Z,26.37
2023-01-25T00:44:57.825Z,26.50
2023-01-25T00:47:26.641Z,26.93
2023-01-25T00:49:55.592Z,27.00
2023-01-25T00:52:24.175Z,26.40
2023-01-25T00:54:54.136Z,24.27
2023-01-25T00:57:22.959Z,27.10
2023-01-25T00:59:51.500Z,25.23
2023-01-25T01:02:20.003Z,25.33
2023-01-25T01:04:48.588Z,28.00
2023-01-25T01:07:17.826Z,27.43
2023-01-25T01:09:46.542Z,30.27
2023-01-25T01:12:16.692Z,28.97
2023-01-25T01:14:48.248Z,28.57
2023-01-25T01:17:17.086Z,28.77
2023-01-25T01:19:45.711Z,27.10
2023-01-25T01:22:14.426Z,31.77
2023-01-25T01:24:43.029Z,35.57
2023-01-25T01:27:11.668Z,36.30
2023-01-25T01:29:41.831Z,32.43
2023-01-25T01:32:10.531Z,31.53
2023-01-25T01:34:39.581Z,34.63
2023-01-25T01:37:08.011Z,32.17
2023-01-25T01:39:36.613Z,34.00
2023-01-25T01:42:05.916Z,39.13
2023-01-25T01:44:50.167Z,38.10
2023-01-25T01:47:23.908Z,36.07
2023-01-25T01:49:57.003Z,28.13
2023-01-25T01:52:31.344Z,35.03
2023-01-25T01:55:04.110Z,40.27
2023-01-25T01:57:40.176Z,41.97
2023-01-25T02:00:13.753Z,40.67
2023-01-25T02:02:43.925Z,35.80
2023-01-25T02:05:18.623Z,35.73
2023-01-25T02:07:50.449Z,40.77
2023-01-25T02:10:19.834Z,45.17
2023-01-25T02:12:49.864Z,50.50
2023-01-25T02:15:19.908Z,48.77
2023-01-25T02:17:50.521Z,52.43
2023-01-25T02:20:28.029Z,54.53
2023-01-25T02:23:01.968Z,53.90
2023-01-25T02:25:32.043Z,51.00
2023-01-25T02:28:06.654Z,47.37
2023-01-25T02:30:35.545Z,47.07
2023-01-25T02:33:04.104Z,43.80
2023-01-25T02:35:41.963Z,43.90
2023-01-25T02:38:12.901Z,46.50
2023-01-25T02:40:48.435Z,45.30
2023-01-25T02:43:18.488Z,42.53
2023-01-25T02:45:50.839Z,45.43
2023-01-25T02:48:19.621Z,51.10
2023-01-25T02:50:48.226Z,50.33
2023-01-25T02:53:16.866Z,56.87
2023-01-25T02:55:46.749Z,56.33
2023-01-25T02:58:15.560Z,52.30
2023-01-25T03:00:44.127Z,51.30
2023-01-25T03:03:12.757Z,50.70
2023-01-25T03:05:41.272Z,53.00
2023-01-25T03:08:09.762Z,51.00
2023-01-25T03:10:38.203Z,47.50
2023-01-25T03:13:08.129Z,47.10
2023-01-25T03:15:36.972Z,42.97
2023-01-25T03:18:05.798Z,42.23
2023-01-25T03:20:35.058Z,42.73
2023-01-25T03:23:03.794Z,48.13
2023-01-25T03:25:32.408Z,48.30
2023-01-25T03:28:00.956Z,47.77
2023-01-25T03:30:31.013Z,46.97
2023-01-25T03:32:59.831Z,52.33
2023-01-25T03:35:28.848Z,53.10
2023-01-25T03:37:57.365Z,56.17
2023-01-25T03:40:25.839Z,56.40
2023-01-25T03:42:54.742Z,57.90
2023-01-25T03:45:23.376Z,65.23
2023-01-25T03:47:53.299Z,64.70
2023-01-25T03:50:21.844Z,63.60
2023-01-25T03:53:01.457Z,65.17
2023-01-25T03:55:29.980Z,65.80
2023-01-25T03:57:58.593Z,67.10
2023-01-25T04:00:33.285Z,69.37
2023-01-25T04:03:03.275Z,68.70
2023-01-25T04:05:31.732Z,74.77
2023-01-25T04:08:00.309Z,73.30
2023-01-25T04:10:28.779Z,71.87
2023-01-25T04:12:57.245Z,75.57
2023-01-25T04:15:26.052Z,71.17
2023-01-25T04:17:54.524Z,73.20
2023-01-25T04:20:24.516Z,69.33
2023-01-25T04:22:52.974Z,71.17
2023-01-25T04:25:21.514Z,73.07
2023-01-25T04:27:52.041Z,68.07
2023-01-25T04:30:20.883Z,64.93
2023-01-25T04:32:49.620Z,70.73
2023-01-25T04:35:18.382Z,60.23
2023-01-25T04:37:54.751Z,55.63
2023-01-25T04:40:23.208Z,51.50
2023-01-25T04:42:51.754Z,45.77
2023-01-25T04:45:20.555Z,47.90
2023-01-25T04:47:49.081Z,43.90
2023-01-25T04:50:17.828Z,36.77
2023-01-25T04:52:47.829Z,34.90
2023-01-25T04:55:16.685Z,36.40
2023-01-25T04:57:45.436Z,35.73
2023-01-25T05:00:14.742Z,34.43
2023-01-25T05:02:43.794Z,39.10
2023-01-25T05:05:13.025Z,39.23
2023-01-25T05:07:41.765Z,37.70
2023-01-25T05:10:13.151Z,35.67
2023-01-25T05:12:42.241Z,34.23
2023-01-25T05:15:11.913Z,35.63
2023-01-25T05:17:40.624Z,33.17
2023-01-25T05:20:10.818Z,36.33
2023-01-25T05:22:39.352Z,32.80
2023-01-25T05:25:28.837Z,32.83
2023-01-25T05:27:57.745Z,39.00
2023-01-25T05:30:26.239Z,39.30
2023-01-25T05:32:55.077Z,32.73
2023-01-25T05:35:23.541Z,31.40
2023-01-25T05:37:52.302Z,39.40
2023-01-25T05:40:20.978Z,34.50
2023-01-25T05:42:55.545Z,43.73
2023-01-25T05:45:25.627Z,38.63
2023-01-25T05:47:57.043Z,38.27
2023-01-25T05:50:27.192Z,38.63
2023-01-25T05:52:55.947Z,39.33
2023-01-25T05:55:24.550Z,39.00
2023-01-25T05:57:56.250Z,46.97
2023-01-25T06:00:26.408Z,47.53
2023-01-25T06:02:57.063Z,49.87
2023-01-25T06:05:25.646Z,50.17
2023-01-25T06:07:54.125Z,43.70
2023-01-25T06:10:22.944Z,44.93
2023-01-25T06:12:51.468Z,43.93
2023-01-25T06:15:19.993Z,47.70
2023-01-25T06:17:52.422Z,44.20
2023-01-25T06:20:21.027Z,47.67
2023-01-25T06:22:51.423Z,44.73
2023-01-25T06:25:20.409Z,56.80
2023-01-25T06:27:49.169Z,49.70
2023-01-25T06:30:18.115Z,44.20
2023-01-25T06:32:46.817Z,40.73
2023-01-25T06:35:16.858Z,41.20
2023-01-25T06:37:45.697Z,56.93
2023-01-25T06:40:14.559Z,80.00
2023-01-25T06:42:43.072Z,49.20
2023-01-25T06:45:12.593Z,45.23
2023-01-25T06:47:41.635Z,41.63
2023-01-25T06:50:11.850Z,41.07
2023-01-25T06:52:41.851Z,44.20
2023-01-25T06:55:14.016Z,41.67
2023-01-25T06:57:42.673Z,41.23
2023-01-25T07:00:12.634Z,42.37
2023-01-25T07:02:41.481Z,40.27
2023-01-25T07:05:10.637Z,39.87
2023-01-25T07:07:39.303Z,41.50
2023-01-25T07:10:10.655Z,45.63
2023-01-25T07:12:39.171Z,46.23
2023-01-25T07:15:09.091Z,45.10
2023-01-25T07:17:37.780Z,43.57
2023-01-25T07:20:07.169Z,47.67
2023-01-25T07:22:42.249Z,49.97
2023-01-25T07:25:12.641Z,50.03
2023-01-25T07:27:41.372Z,54.87
2023-01-25T07:30:14.519Z,52.83
2023-01-25T07:32:50.907Z,53.23
2023-01-25T07:35:19.497Z,56.43
2023-01-25T07:37:48.017Z,57.07
2023-01-25T07:40:18.200Z,55.77
2023-01-25T07:42:46.771Z,60.17
2023-01-25T07:45:15.678Z,59.80
2023-01-25T07:47:44.307Z,57.60
2023-01-25T07:50:13.908Z,56.57
2023-01-25T07:52:42.968Z,55.43
2023-01-25T07:55:12.123Z,56.70
2023-01-25T07:57:42.313Z,54.87
2023-01-25T08:00:12.616Z,51.80
2023-01-25T08:02:41.572Z,52.20
2023-01-25T08:05:11.361Z,50.03
2023-01-25T08:07:40.137Z,52.67
2023-01-25T08:10:09.472Z,51.23
2023-01-25T08:12:38.732Z,51.80
2023-01-25T08:15:10.129Z,51.70
2023-01-25T08:17:38.921Z,50.27
2023-01-25T08:20:09.091Z,50.13
2023-01-25T08:22:37.722Z,54.47
2023-01-25T08:25:07.346Z,55.33
2023-01-25T08:27:36.363Z,52.93
2023-01-25T08:30:05.303Z,46.00
2023-01-25T08:32:38.031Z,84.77
2023-01-25T08:35:08.483Z,55.17
2023-01-25T08:37:37.123Z,51.83
2023-01-25T08:40:07.934Z,53.23
2023-01-25T08:42:37.010Z,48.23
2023-01-25T08:45:07.006Z,47.77
2023-01-25T08:47:37.552Z,47.90
2023-01-25T08:50:07.540Z,48.47
2023-01-25T08:52:36.303Z,47.87
2023-01-25T08:55:05.155Z,49.23
2023-01-25T08:57:34.171Z,49.17
2023-01-25T09:00:03.164Z,53.33
2023-01-25T09:02:31.735Z,47.90
2023-01-25T09:05:01.630Z,48.70
2023-01-25T09:07:32.493Z,51.97
2023-01-25T09:10:01.155Z,51.47
2023-01-25T09:12:29.756Z,52.03
2023-01-25T09:14:58.978Z,53.70
2023-01-25T09:17:27.861Z,50.03
2023-01-25T09:19:56.896Z,53.47
2023-01-25T09:22:26.897Z,47.47
2023-01-25T09:24:56.591Z,44.50
2023-01-25T09:27:25.624Z,49.33
2023-01-25T09:30:02.135Z,51.33
2023-01-25T09:32:31.778Z,48.03
2023-01-25T09:35:00.385Z,48.73
2023-01-25T09:37:30.328Z,46.10
2023-01-25T09:39:58.981Z,48.10
2023-01-25T09:42:47.968Z,48.10
2023-01-25T09:45:28.487Z,53.00
2023-01-25T09:48:02.397Z,50.00
2023-01-25T09:50:40.091Z,48.30
2023-01-25T09:53:24.488Z,48.37
2023-01-25T09:55:55.880Z,49.57
2023-01-25T09:58:29.647Z,48.17
2023-01-25T10:01:14.516Z,51.47
2023-01-25T10:03:49.497Z,47.63
2023-01-25T10:06:20.607Z,51.13
2023-01-25T10:08:57.035Z,48.90
2023-01-25T10:11:29.263Z,50.00
2023-01-25T10:13:58.919Z,50.17
2023-01-25T10:16:33.180Z,48.57
2023-01-25T10:19:15.141Z,45.10
2023-01-25T10:21:46.803Z,49.43
2023-01-25T10:24:35.885Z,51.83
2023-01-25T10:27:18.867Z,46.07
2023-01-25T10:29:49.726Z,48.43
2023-01-25T10:32:23.518Z,46.87
2023-01-25T10:35:08.381Z,46.67
2023-01-25T10:37:37.960Z,47.87
2023-01-25T10:40:17.107Z,45.40
2023-01-25T10:42:51.234Z,46.47
2023-01-25T10:45:20.680Z,48.27
2023-01-25T10:47:52.134Z,48.40
2023-01-25T10:50:46.680Z,46.23
2023-01-25T10:53:31.233Z,42.67
2023-01-25T10:56:23.687Z,55.63
2023-01-25T10:58:55.581Z,53.57
2023-01-25T11:01:31.689Z,53.37
2023-01-25T11:04:01.594Z,54.20
2023-01-25T11:06:36.080Z,51.37
2023-01-25T11:09:33.237Z,54.50
2023-01-25T11:12:03.370Z,53.60
2023-01-25T11:14:33.738Z,57.20
2023-01-25T11:17:06.650Z,58.83
2023-01-25T11:19:37.330Z,58.33
2023-01-25T11:22:07.779Z,56.07
2023-01-25T11:24:38.941Z,51.97
2023-01-25T11:27:18.816Z,75.77
2023-01-25T11:29:48.188Z,64.57
2023-01-25T11:32:25.200Z,58.13
2023-01-25T11:34:53.948Z,55.97
2023-01-25T11:37:36.660Z,58.50
2023-01-25T11:40:18.070Z,54.60
2023-01-25T11:43:00.129Z,60.53
2023-01-25T11:45:56.641Z,128.30
2023-01-25T11:48:35.091Z,98.77
2023-01-25T11:51:07.714Z,69.60
2023-01-25T11:53:48.359Z,81.23
2023-01-25T11:56:27.676Z,67.50
2023-01-25T11:59:10.942Z,62.80
2023-01-25T12:01:53.857Z,65.63
2023-01-25T12:04:50.139Z,66.10
2023-01-25T12:07:24.117Z,64.83
2023-01-25T12:10:03.892Z,65.93
2023-01-25T12:12:46.067Z,67.53
2023-01-25T12:15:36.440Z,69.03
2023-01-25T12:18:22.266Z,70.63
2023-01-25T12:21:17.467Z,69.23
2023-01-25T12:24:13.198Z,78.63
2023-01-25T12:26:52.038Z,68.43
2023-01-25T12:29:28.159Z,75.80
2023-01-25T12:32:02.364Z,75.17
2023-01-25T12:34:37.272Z,75.47
2023-01-25T12:37:13.570Z,77.00
2023-01-25T12:39:48.517Z,76.80
2023-01-25T12:42:21.476Z,79.17
2023-01-25T12:44:58.500Z,76.10
2023-01-25T12:47:36.209Z,74.23
2023-01-25T12:50:16.761Z,78.47
2023-01-25T12:52:51.037Z,79.87
2023-01-25T12:55:20.915Z,84.03
2023-01-25T12:57:58.046Z,83.43
2023-01-25T13:00:36.349Z,78.93
2023-01-25T13:03:15.951Z,77.60
2023-01-25T13:05:52.683Z,81.47
2023-01-25T13:08:33.279Z,80.10
2023-01-25T13:11:12.886Z,72.20
2023-01-25T13:13:41.806Z,77.77
2023-01-25T13:16:39.780Z,78.53
2023-01-25T13:19:21.635Z,84.33
2023-01-25T13:21:53.119Z,85.63
2023-01-25T13:24:25.001Z,75.63
2023-01-25T13:27:02.299Z,79.87
2023-01-25T13:30:04.476Z,76.57
2023-01-25T13:32:58.697Z,76.37
2023-01-25T13:35:36.727Z,73.80
2023-01-25T13:38:26.791Z,72.20
2023-01-25T13:41:14.538Z,75.97
2023-01-25T13:43:48.879Z,79.73
2023-01-25T13:46:25.613Z,73.03
2023-01-25T13:49:09.088Z,77.17
2023-01-25T13:51:42.137Z,80.27
2023-01-25T13:54:17.708Z,73.73
2023-01-25T13:56:46.451Z,79.13
2023-01-25T13:59:26.917Z,73.67
2023-01-25T14:01:57.370Z,77.50
2023-01-25T14:04:28.870Z,84.50
2023-01-25T14:06:59.836Z,85.40
2023-01-25T14:09:31.865Z,82.10
2023-01-25T14:12:02.388Z,90.03
2023-01-25T14:14:34.173Z,88.67
2023-01-25T14:17:10.325Z,81.57
2023-01-25T14:19:41.512Z,84.30
2023-01-25T14:22:25.109Z,85.93
2023-01-25T14:25:13.663Z,80.63
2023-01-25T14:27:48.081Z,87.07
2023-01-25T14:30:23.275Z,110.27
2023-01-25T14:32:53.433Z,103.53
2023-01-25T14:35:43.489Z,139.40
2023-01-25T14:38:28.155Z,149.60
2023-01-25T14:41:00.529Z,122.30
2023-01-25T14:43:29.901Z,116.40
2023-01-25T14:45:58.821Z,116.90
2023-01-25T14:48:38.802Z,114.97
2023-01-25T14:51:15.512Z,92.50
2023-01-25T14:53:47.592Z,105.27
2023-01-25T14:56:38.583Z,114.33
2023-01-25T14:59:08.486Z,99.83
2023-01-25T15:01:42.425Z,94.27
2023-01-25T15:04:15.277Z,150.43
2023-01-25T15:06:50.938Z,154.20
2023-01-25T15:09:37.786Z,112.70
2023-01-25T15:12:24.329Z,121.23
2023-01-25T15:14:54.839Z,108.03
2023-01-25T15:17:46.960Z,108.70
2023-01-25T15:20:38.914Z,105.50
2023-01-25T15:23:25.263Z,111.93
2023-01-25T15:25:55.751Z,98.27
2023-01-25T15:28:26.092Z,165.53
2023-01-25T15:30:55.145Z,95.80
2023-01-25T15:33:25.945Z,139.23
2023-01-25T15:35:55.048Z,100.43
2023-01-25T15:38:27.708Z,90.40
2023-01-25T15:41:01.553Z,135.43
2023-01-25T15:43:30.311Z,95.23
2023-01-25T15:46:00.941Z,85.97
2023-01-25T15:48:32.399Z,89.50
2023-01-25T15:51:01.088Z,94.47
2023-01-25T15:53:31.198Z,108.73
2023-01-25T15:56:03.051Z,114.63
2023-01-25T15:58:34.958Z,100.27
2023-01-25T16:01:03.911Z,101.63
2023-01-25T16:03:33.029Z,90.00
2023-01-25T16:06:03.927Z,126.37
2023-01-25T16:08:36.758Z,127.67
2023-01-25T16:11:05.767Z,96.67
2023-01-25T16:13:34.635Z,87.47
2023-01-25T16:16:03.530Z,90.27
2023-01-25T16:18:32.373Z,91.00
2023-01-25T16:21:01.137Z,87.47
2023-01-25T16:23:29.817Z,98.07
2023-01-25T16:26:00.974Z,108.43
2023-01-25T16:28:30.091Z,86.50
2023-01-25T16:30:59.330Z,87.63
2023-01-25T16:33:28.228Z,90.33
2023-01-25T16:36:13.320Z,87.50
2023-01-25T16:38:42.170Z,88.53
2023-01-25T16:41:13.566Z,91.47
2023-01-25T16:43:43.679Z,80.43
2023-01-25T16:46:17.822Z,83.00
2023-01-25T16:48:48.033Z,86.73
2023-01-25T16:51:21.859Z,74.33
2023-01-25T16:53:52.241Z,97.60
2023-01-25T16:56:25.156Z,89.60
2023-01-25T16:58:55.802Z,79.97
2023-01-25T17:01:27.815Z,107.60
2023-01-25T17:03:57.643Z,122.07
2023-01-25T17:06:29.577Z,79.20
2023-01-25T17:09:04.031Z,82.07
2023-01-25T17:11:38.647Z,90.20
2023-01-25T17:14:09.164Z,99.73
2023-01-25T17:16:39.304Z,91.60
2023-01-25T17:19:13.407Z,78.40
2023-01-25T17:21:42.385Z,79.47
2023-01-25T17:24:14.544Z,77.10
2023-01-25T17:26:45.237Z,76.70
2023-01-25T17:29:15.226Z,87.87
2023-01-25T17:31:44.627Z,76.80
2023-01-25T17:34:17.039Z,76.13
2023-01-25T17:36:47.219Z,80.67
2023-01-25T17:39:17.343Z,75.67
2023-01-25T17:41:49.273Z,85.63
2023-01-25T17:44:21.625Z,80.00
2023-01-25T17:46:51.141Z,78.80
2023-01-25T17:49:22.798Z,76.17
2023-01-25T17:51:53.540Z,77.40
2023-01-25T17:54:22.388Z,72.03
2023-01-25T17:56:54.230Z,70.17
2023-01-25T17:59:23.385Z,71.07
2023-01-25T18:01:55.047Z,76.63
2023-01-25T18:04:24.024Z,68.93
2023-01-25T18:06:53.153Z,73.77
2023-01-25T18:09:25.746Z,68.43
2023-01-25T18:11:56.079Z,72.47
2023-01-25T18:14:25.500Z,66.97
2023-01-25T18:16:54.292Z,75.07
2023-01-25T18:19:23.468Z,76.10
2023-01-25T18:21:52.308Z,66.10
2023-01-25T18:24:34.248Z,66.13
2023-01-25T18:27:08.155Z,68.00
2023-01-25T18:29:45.874Z,86.93
2023-01-25T18:32:15.178Z,71.17
2023-01-25T18:34:44.137Z,96.00
2023-01-25T18:37:23.552Z,70.43
2023-01-25T18:39:54.542Z,70.10
2023-01-25T18:42:30.424Z,73.27
2023-01-25T18:45:00.751Z,82.37
2023-01-25T18:47:31.891Z,85.00
2023-01-25T18:50:01.018Z,81.57
2023-01-25T18:52:29.974Z,88.77
2023-01-25T18:55:03.753Z,75.10
2023-01-25T18:57:34.526Z,76.50
2023-01-25T19:00:04.621Z,76.30
2023-01-25T19:02:33.685Z,75.73
2023-01-25T19:05:02.616Z,74.20
2023-01-25T19:07:31.710Z,79.00
2023-01-25T19:10:00.926Z,70.80
2023-01-25T19:12:29.880Z,84.77
2023-01-25T19:15:00.310Z,73.50
2023-01-25T19:17:29.507Z,75.63
2023-01-25T19:20:01.319Z,83.07
2023-01-25T19:22:30.151Z,76.63
2023-01-25T19:24:58.910Z,75.87
2023-01-25T19:27:29.626Z,73.33
2023-01-25T19:29:59.844Z,76.53
2023-01-25T19:32:28.656Z,82.87
2023-01-25T19:34:57.536Z,78.13
2023-01-25T19:37:27.142Z,80.30
2023-01-25T19:39:55.975Z,77.07
2023-01-25T19:42:25.500Z,80.20
2023-01-25T19:44:57.146Z,80.47
2023-01-25T19:47:27.828Z,75.27
2023-01-25T19:49:57.487Z,81.50
2023-01-25T19:52:26.590Z,81.77
2023-01-25T19:54:56.600Z,74.53
2023-01-25T19:57:25.572Z,77.67
2023-01-25T19:59:54.331Z,78.67
2023-01-25T20:02:23.350Z,80.63
2023-01-25T20:04:53.755Z,83.97
2023-01-25T20:07:22.626Z,78.93
2023-01-25T20:09:54.562Z,76.77
2023-01-25T20:12:24.160Z,83.83
2023-01-25T20:14:56.790Z,77.87
2023-01-25T20:17:26.107Z,79.07
2023-01-25T20:19:56.657Z,76.07
2023-01-25T20:22:27.967Z,83.33
2023-01-25T20:24:57.075Z,87.57
2023-01-25T20:27:26.060Z,75.00
2023-01-25T20:29:55.211Z,78.23
2023-01-25T20:32:32.684Z,71.03
2023-01-25T20:35:07.252Z,72.13
2023-01-25T20:37:36.602Z,74.50
2023-01-25T20:40:07.229Z,80.43
2023-01-25T20:42:36.084Z,73.57
2023-01-25T20:45:14.699Z,76.53
2023-01-25T20:47:43.438Z,75.37
2023-01-25T20:50:13.932Z,79.03
2023-01-25T20:52:42.742Z,81.30
2023-01-25T20:55:12.393Z,76.53
2023-01-25T20:57:42.315Z,80.53
2023-01-25T21:00:15.466Z,78.50
2023-01-25T21:02:44.261Z,84.40
2023-01-25T21:05:14.840Z,81.17
2023-01-25T21:07:44.466Z,76.63
2023-01-25T21:10:13.639Z,77.90
2023-01-25T21:12:45.348Z,81.60
2023-01-25T21:15:17.746Z,81.47
2023-01-25T21:17:52.287Z,84.87
2023-01-25T21:20:22.701Z,85.20
2023-01-25T21:22:51.653Z,77.83
2023-01-25T21:25:21.691Z,76.03
2023-01-25T21:27:53.783Z,85.50
2023-01-25T21:30:26.034Z,82.50
2023-01-25T21:32:55.536Z,86.10
2023-01-25T21:35:31.364Z,86.07
2023-01-25T21:38:02.450Z,83.77
2023-01-25T21:40:32.996Z,86.83
2023-01-25T21:43:01.719Z,82.40
2023-01-25T21:45:56.402Z,79.13
2023-01-25T21:48:38.950Z,85.87
2023-01-25T21:51:29.745Z,83.73
2023-01-25T21:53:58.497Z,77.53
2023-01-25T21:56:27.633Z,82.87
2023-01-25T21:58:56.462Z,82.57
2023-01-25T22:01:25.201Z,82.70
2023-01-25T22:03:54.553Z,83.47
2023-01-25T22:06:24.914Z,79.50
2023-01-25T22:08:53.869Z,77.60
2023-01-25T22:11:23.128Z,77.30
2023-01-25T22:13:52.069Z,86.47
2023-01-25T22:16:21.550Z,86.80
2023-01-25T22:18:50.908Z,81.93
2023-01-25T22:21:23.548Z,76.83
2023-01-25T22:23:56.054Z,82.40
2023-01-25T22:26:27.161Z,83.27
2023-01-25T22:28:57.092Z,79.60
2023-01-25T22:31:28.037Z,79.40
2023-01-25T22:33:58.159Z,83.37
2023-01-25T22:36:29.177Z,77.70
2023-01-25T22:39:00.439Z,78.90
2023-01-25T22:41:31.616Z,88.23
2023-01-25T22:44:00.923Z,125.70
2023-01-25T22:46:32.136Z,143.27
2023-01-25T22:49:02.529Z,101.60
2023-01-25T22:51:32.561Z,94.87
2023-01-25T22:54:02.786Z,88.67
2023-01-25T22:56:33.879Z,83.07
2023-01-25T22:59:04.549Z,89.33
2023-01-25T23:01:35.141Z,97.00
2023-01-25T23:04:05.172Z,105.00
2023-01-25T23:06:35.266Z,98.90
2023-01-25T23:09:07.487Z,101.80
2023-01-25T23:11:38.138Z,104.70
2023-01-25T23:14:25.103Z,103.00
2023-01-25T23:17:14.679Z,103.63
2023-01-25T23:19:42.152Z,106.73
2023-01-25T23:22:11.131Z,106.07
2023-01-25T23:24:41.219Z,113.10
2023-01-25T23:27:10.024Z,117.67
2023-01-25T23:29:38.516Z,117.50
2023-01-25T23:32:07.438Z,109.97
2023-01-25T23:34:39.640Z,114.47
2023-01-25T23:37:09.435Z,122.27
2023-01-25T23:39:38.076Z,124.83
2023-01-25T23:42:08.093Z,126.40
2023-01-25T23:44:36.638Z,135.30
2023-01-25T23:47:05.266Z,128.33
2023-01-25T23:49:33.848Z,144.07
2023-01-25T23:52:03.335Z,140.53
2023-01-25T23:54:31.857Z,138.83
2023-01-25T23:57:00.994Z,143.33
2023-01-25T23:59:31.087Z,143.20
